LIEO/OLB METAR and TAF weather

Enter ICAO airport designator
Station Type Date Time Source
LIEO METAR 2019/02/20 06:50 UTC NOAA

LIEO 200650Z VRB02KT 9999 SCT050 04/04 Q1023


Station Type Date Time Source
LIEO Decoded METAR 2019/02/20 06:50 UTC NOAA

Olbia / Costa Smeralda, Italy (LIEO) 40-54N 009-31E 13M
Feb 20, 2019 - 01:50 AM EST / 2019.02.20 0650 UTC
Wind: Variable at 2 MPH (2 KT):0
Visibility: greater than 7 mile(s):0
Sky conditions: partly cloudy
Temperature: 39 F (4 C)
Dew Point: 39 F (4 C)
Relative Humidity: 100%
Pressure (altimeter): 30.21 in. Hg (1023 hPa)
ob: LIEO 200650Z VRB02KT 9999 SCT050 04/04 Q1023
cycle: 7

Station Type Date Time Source
LIEO TAF 2019/02/20 06:24 UTC NOAA

TAF LIEO 200500Z 2006/2106 VRB05KT 9999 FEW020


Example: see airport list